sensor_id;sensor_type;location;lat;lon;timestamp;P1;durP1;ratioP1;P2;durP2;ratioP2
10244;SDS011;5167;52.164;10.530;2023-11-21T00:02:13;6.20;;;4.22;;
10244;SDS011;5167;52.164;10.530;2023-11-21T00:04:38;10.35;;;4.22;;
10244;SDS011;5167;52.164;10.530;2023-11-21T00:07:04;14.85;;;4.18;;
10244;SDS011;5167;52.164;10.530;2023-11-21T00:09:30;12.25;;;4.47;;
10244;SDS011;5167;52.164;10.530;2023-11-21T00:11:56;15.80;;;5.97;;
10244;SDS011;5167;52.164;10.530;2023-11-21T00:14:22;9.77;;;4.68;;
10244;SDS011;5167;52.164;10.530;2023-11-21T00:16:48;8.23;;;4.10;;
10244;SDS011;5167;52.164;10.530;2023-11-21T00:19:13;7.40;;;3.75;;
10244;SDS011;5167;52.164;10.530;2023-11-21T00:21:39;8.37;;;4.50;;
10244;SDS011;5167;52.164;10.530;2023-11-21T00:24:04;11.32;;;4.22;;
10244;SDS011;5167;52.164;10.530;2023-11-21T00:26:30;11.13;;;4.47;;
10244;SDS011;5167;52.164;10.530;2023-11-21T00:28:57;12.95;;;4.85;;
10244;SDS011;5167;52.164;10.530;2023-11-21T00:31:22;12.10;;;4.40;;
10244;SDS011;5167;52.164;10.530;2023-11-21T00:33:48;14.68;;;4.55;;
10244;SDS011;5167;52.164;10.530;2023-11-21T00:36:13;13.20;;;4.70;;
10244;SDS011;5167;52.164;10.530;2023-11-21T00:38:39;16.27;;;4.35;;
10244;SDS011;5167;52.164;10.530;2023-11-21T00:41:05;7.93;;;4.38;;
10244;SDS011;5167;52.164;10.530;2023-11-21T00:43:31;12.98;;;4.38;;
10244;SDS011;5167;52.164;10.530;2023-11-21T00:45:58;11.32;;;4.85;;
10244;SDS011;5167;52.164;10.530;2023-11-21T00:48:23;8.05;;;4.35;;
10244;SDS011;5167;52.164;10.530;2023-11-21T00:50:49;9.90;;;4.78;;
10244;SDS011;5167;52.164;10.530;2023-11-21T00:53:15;11.93;;;5.30;;
10244;SDS011;5167;52.164;10.530;2023-11-21T00:55:40;12.50;;;4.93;;
10244;SDS011;5167;52.164;10.530;2023-11-21T00:58:06;7.53;;;4.70;;
10244;SDS011;5167;52.164;10.530;2023-11-21T01:00:32;14.30;;;4.70;;
10244;SDS011;5167;52.164;10.530;2023-11-21T01:02:59;19.98;;;6.07;;
10244;SDS011;5167;52.164;10.530;2023-11-21T01:05:24;10.70;;;5.57;;
10244;SDS011;5167;52.164;10.530;2023-11-21T01:07:50;10.40;;;4.63;;
10244;SDS011;5167;52.164;10.530;2023-11-21T01:10:15;9.67;;;5.27;;
10244;SDS011;5167;52.164;10.530;2023-11-21T01:12:42;14.27;;;5.10;;
10244;SDS011;5167;52.164;10.530;2023-11-21T01:15:08;12.60;;;5.60;;
10244;SDS011;5167;52.164;10.530;2023-11-21T01:17:34;12.57;;;5.70;;
10244;SDS011;5167;52.164;10.530;2023-11-21T01:20:00;16.75;;;6.57;;
10244;SDS011;5167;52.164;10.530;2023-11-21T01:22:26;13.13;;;6.38;;
10244;SDS011;5167;52.164;10.530;2023-11-21T01:24:52;20.13;;;6.32;;
10244;SDS011;5167;52.164;10.530;2023-11-21T01:27:18;13.85;;;5.65;;
10244;SDS011;5167;52.164;10.530;2023-11-21T01:29:44;16.33;;;5.63;;
10244;SDS011;5167;52.164;10.530;2023-11-21T01:32:09;12.27;;;5.57;;
10244;SDS011;5167;52.164;10.530;2023-11-21T01:34:35;19.20;;;5.95;;
10244;SDS011;5167;52.164;10.530;2023-11-21T01:37:01;11.13;;;6.03;;
10244;SDS011;5167;52.164;10.530;2023-11-21T01:39:29;8.52;;;5.55;;
10244;SDS011;5167;52.164;10.530;2023-11-21T01:41:55;11.55;;;5.47;;
10244;SDS011;5167;52.164;10.530;2023-11-21T01:44:23;16.17;;;6.80;;
10244;SDS011;5167;52.164;10.530;2023-11-21T01:46:49;14.50;;;6.00;;
10244;SDS011;5167;52.164;10.530;2023-11-21T01:49:15;16.00;;;6.13;;
10244;SDS011;5167;52.164;10.530;2023-11-21T01:51:43;19.38;;;6.20;;
10244;SDS011;5167;52.164;10.530;2023-11-21T01:54:11;13.20;;;5.95;;
10244;SDS011;5167;52.164;10.530;2023-11-21T01:56:37;12.43;;;5.85;;
10244;SDS011;5167;52.164;10.530;2023-11-21T01:59:04;12.25;;;6.53;;
10244;SDS011;5167;52.164;10.530;2023-11-21T02:01:29;16.10;;;6.25;;
10244;SDS011;5167;52.164;10.530;2023-11-21T02:03:56;13.77;;;6.13;;
10244;SDS011;5167;52.164;10.530;2023-11-21T02:06:22;13.60;;;5.40;;
10244;SDS011;5167;52.164;10.530;2023-11-21T02:08:47;17.52;;;6.10;;
10244;SDS011;5167;52.164;10.530;2023-11-21T02:11:14;12.55;;;5.57;;
10244;SDS011;5167;52.164;10.530;2023-11-21T02:13:39;19.40;;;6.63;;
10244;SDS011;5167;52.164;10.530;2023-11-21T02:16:09;15.20;;;6.80;;
10244;SDS011;5167;52.164;10.530;2023-11-21T02:18:37;18.90;;;6.00;;
10244;SDS011;5167;52.164;10.530;2023-11-21T02:21:04;13.98;;;6.15;;
10244;SDS011;5167;52.164;10.530;2023-11-21T02:23:29;16.20;;;6.63;;
10244;SDS011;5167;52.164;10.530;2023-11-21T02:25:55;15.02;;;5.45;;
10244;SDS011;5167;52.164;10.530;2023-11-21T02:28:20;15.13;;;7.13;;
10244;SDS011;5167;52.164;10.530;2023-11-21T02:30:50;14.60;;;6.18;;
10244;SDS011;5167;52.164;10.530;2023-11-21T02:33:20;14.88;;;5.68;;
10244;SDS011;5167;52.164;10.530;2023-11-21T02:35:46;14.70;;;5.85;;
10244;SDS011;5167;52.164;10.530;2023-11-21T02:38:12;28.10;;;6.35;;
10244;SDS011;5167;52.164;10.530;2023-11-21T02:40:38;21.35;;;6.43;;
10244;SDS011;5167;52.164;10.530;2023-11-21T02:43:04;22.02;;;7.22;;
10244;SDS011;5167;52.164;10.530;2023-11-21T02:45:30;13.00;;;6.35;;
10244;SDS011;5167;52.164;10.530;2023-11-21T02:47:57;15.00;;;6.57;;
10244;SDS011;5167;52.164;10.530;2023-11-21T02:50:23;17.57;;;6.80;;
10244;SDS011;5167;52.164;10.530;2023-11-21T02:52:48;16.92;;;6.57;;
10244;SDS011;5167;52.164;10.530;2023-11-21T02:55:14;11.50;;;6.03;;
10244;SDS011;5167;52.164;10.530;2023-11-21T02:57:40;24.48;;;6.60;;
10244;SDS011;5167;52.164;10.530;2023-11-21T03:00:05;13.48;;;6.78;;
10244;SDS011;5167;52.164;10.530;2023-11-21T03:02:39;16.15;;;6.45;;
10244;SDS011;5167;52.164;10.530;2023-11-21T03:05:06;21.60;;;6.47;;
10244;SDS011;5167;52.164;10.530;2023-11-21T03:07:33;11.05;;;6.53;;
10244;SDS011;5167;52.164;10.530;2023-11-21T03:10:00;21.10;;;6.70;;
10244;SDS011;5167;52.164;10.530;2023-11-21T03:12:25;14.98;;;6.97;;
10244;SDS011;5167;52.164;10.530;2023-11-21T03:14:51;17.77;;;6.72;;
10244;SDS011;5167;52.164;10.530;2023-11-21T03:17:16;16.88;;;7.35;;
10244;SDS011;5167;52.164;10.530;2023-11-21T03:19:42;17.92;;;8.43;;
10244;SDS011;5167;52.164;10.530;2023-11-21T03:22:07;23.73;;;7.68;;
10244;SDS011;5167;52.164;10.530;2023-11-21T03:24:33;19.13;;;7.32;;
10244;SDS011;5167;52.164;10.530;2023-11-21T03:26:59;19.65;;;7.20;;
10244;SDS011;5167;52.164;10.530;2023-11-21T03:29:25;23.05;;;7.90;;
10244;SDS011;5167;52.164;10.530;2023-11-21T03:31:51;15.07;;;7.10;;
10244;SDS011;5167;52.164;10.530;2023-11-21T03:34:22;22.48;;;6.93;;
10244;SDS011;5167;52.164;10.530;2023-11-21T03:36:52;15.98;;;8.00;;
10244;SDS011;5167;52.164;10.530;2023-11-21T03:39:19;22.75;;;8.90;;
10244;SDS011;5167;52.164;10.530;2023-11-21T03:41:45;18.95;;;7.90;;
10244;SDS011;5167;52.164;10.530;2023-11-21T03:44:10;18.55;;;7.15;;
10244;SDS011;5167;52.164;10.530;2023-11-21T03:46:36;25.00;;;7.60;;
10244;SDS011;5167;52.164;10.530;2023-11-21T03:49:01;18.38;;;7.45;;
10244;SDS011;5167;52.164;10.530;2023-11-21T03:51:27;18.75;;;8.55;;
10244;SDS011;5167;52.164;10.530;2023-11-21T03:53:52;24.38;;;8.57;;
10244;SDS011;5167;52.164;10.530;2023-11-21T03:56:18;19.35;;;7.95;;
10244;SDS011;5167;52.164;10.530;2023-11-21T03:58:46;17.42;;;7.50;;
10244;SDS011;5167;52.164;10.530;2023-11-21T04:01:18;19.02;;;7.75;;
10244;SDS011;5167;52.164;10.530;2023-11-21T04:03:47;19.15;;;9.48;;
10244;SDS011;5167;52.164;10.530;2023-11-21T04:06:13;20.40;;;8.45;;
10244;SDS011;5167;52.164;10.530;2023-11-21T04:08:39;16.83;;;8.60;;
10244;SDS011;5167;52.164;10.530;2023-11-21T04:11:04;23.45;;;7.88;;
10244;SDS011;5167;52.164;10.530;2023-11-21T04:13:30;25.52;;;8.10;;
10244;SDS011;5167;52.164;10.530;2023-11-21T04:15:56;15.98;;;7.65;;
10244;SDS011;5167;52.164;10.530;2023-11-21T04:18:21;25.95;;;9.57;;
10244;SDS011;5167;52.164;10.530;2023-11-21T04:20:48;21.27;;;10.13;;
10244;SDS011;5167;52.164;10.530;2023-11-21T04:23:14;22.90;;;8.88;;
10244;SDS011;5167;52.164;10.530;2023-11-21T04:25:40;20.80;;;8.43;;
10244;SDS011;5167;52.164;10.530;2023-11-21T04:28:05;17.83;;;7.72;;
10244;SDS011;5167;52.164;10.530;2023-11-21T04:30:31;19.95;;;9.20;;
10244;SDS011;5167;52.164;10.530;2023-11-21T04:32:57;23.45;;;8.75;;
10244;SDS011;5167;52.164;10.530;2023-11-21T04:35:23;18.13;;;8.52;;
10244;SDS011;5167;52.164;10.530;2023-11-21T04:37:49;25.02;;;8.68;;
10244;SDS011;5167;52.164;10.530;2023-11-21T04:40:16;26.35;;;9.05;;
10244;SDS011;5167;52.164;10.530;2023-11-21T04:42:41;21.80;;;9.18;;
10244;SDS011;5167;52.164;10.530;2023-11-21T04:45:07;22.63;;;8.32;;
10244;SDS011;5167;52.164;10.530;2023-11-21T04:47:34;19.88;;;8.90;;
10244;SDS011;5167;52.164;10.530;2023-11-21T04:50:00;26.55;;;8.57;;
10244;SDS011;5167;52.164;10.530;2023-11-21T04:52:25;19.80;;;9.38;;
10244;SDS011;5167;52.164;10.530;2023-11-21T04:54:51;27.08;;;9.10;;
10244;SDS011;5167;52.164;10.530;2023-11-21T04:57:19;29.55;;;10.07;;
10244;SDS011;5167;52.164;10.530;2023-11-21T04:59:45;21.05;;;9.60;;
10244;SDS011;5167;52.164;10.530;2023-11-21T05:02:10;24.38;;;9.27;;
10244;SDS011;5167;52.164;10.530;2023-11-21T05:04:37;20.80;;;9.57;;
10244;SDS011;5167;52.164;10.530;2023-11-21T05:07:03;25.85;;;10.30;;
10244;SDS011;5167;52.164;10.530;2023-11-21T05:09:28;23.20;;;9.25;;
10244;SDS011;5167;52.164;10.530;2023-11-21T05:11:57;19.38;;;9.70;;
10244;SDS011;5167;52.164;10.530;2023-11-21T05:14:22;24.92;;;9.32;;
10244;SDS011;5167;52.164;10.530;2023-11-21T05:16:48;21.65;;;9.40;;
10244;SDS011;5167;52.164;10.530;2023-11-21T05:19:15;30.10;;;11.05;;
10244;SDS011;5167;52.164;10.530;2023-11-21T05:21:41;25.92;;;10.68;;
10244;SDS011;5167;52.164;10.530;2023-11-21T05:24:06;20.35;;;9.93;;
10244;SDS011;5167;52.164;10.530;2023-11-21T05:26:32;26.25;;;10.15;;
10244;SDS011;5167;52.164;10.530;2023-11-21T05:28:58;27.80;;;10.65;;
10244;SDS011;5167;52.164;10.530;2023-11-21T05:31:23;26.20;;;9.48;;
10244;SDS011;5167;52.164;10.530;2023-11-21T05:33:48;18.48;;;9.55;;
10244;SDS011;5167;52.164;10.530;2023-11-21T05:36:14;25.98;;;10.68;;
10244;SDS011;5167;52.164;10.530;2023-11-21T05:38:39;17.77;;;9.88;;
10244;SDS011;5167;52.164;10.530;2023-11-21T05:41:06;26.02;;;11.02;;
10244;SDS011;5167;52.164;10.530;2023-11-21T05:43:32;24.85;;;11.07;;
10244;SDS011;5167;52.164;10.530;2023-11-21T05:46:00;20.77;;;11.05;;
10244;SDS011;5167;52.164;10.530;2023-11-21T05:48:25;23.63;;;9.82;;
10244;SDS011;5167;52.164;10.530;2023-11-21T05:50:51;19.80;;;10.48;;
10244;SDS011;5167;52.164;10.530;2023-11-21T05:53:17;23.92;;;9.77;;
10244;SDS011;5167;52.164;10.530;2023-11-21T05:55:43;35.25;;;11.50;;
10244;SDS011;5167;52.164;10.530;2023-11-21T05:58:08;25.45;;;10.40;;
10244;SDS011;5167;52.164;10.530;2023-11-21T06:00:34;27.60;;;11.27;;
10244;SDS011;5167;52.164;10.530;2023-11-21T06:02:59;23.92;;;10.55;;
10244;SDS011;5167;52.164;10.530;2023-11-21T06:05:26;25.90;;;10.38;;
10244;SDS011;5167;52.164;10.530;2023-11-21T06:07:55;26.17;;;10.77;;
10244;SDS011;5167;52.164;10.530;2023-11-21T06:10:23;19.70;;;11.02;;
10244;SDS011;5167;52.164;10.530;2023-11-21T06:12:49;21.52;;;11.75;;
10244;SDS011;5167;52.164;10.530;2023-11-21T06:15:15;28.02;;;11.07;;
10244;SDS011;5167;52.164;10.530;2023-11-21T06:17:41;24.85;;;11.60;;
10244;SDS011;5167;52.164;10.530;2023-11-21T06:20:11;29.08;;;11.73;;
10244;SDS011;5167;52.164;10.530;2023-11-21T06:22:39;29.92;;;11.70;;
10244;SDS011;5167;52.164;10.530;2023-11-21T06:25:06;31.92;;;11.23;;
10244;SDS011;5167;52.164;10.530;2023-11-21T06:27:33;34.92;;;13.20;;
10244;SDS011;5167;52.164;10.530;2023-11-21T06:30:06;28.02;;;11.55;;
10244;SDS011;5167;52.164;10.530;2023-11-21T06:32:33;32.03;;;12.60;;
10244;SDS011;5167;52.164;10.530;2023-11-21T06:35:00;31.92;;;12.05;;
10244;SDS011;5167;52.164;10.530;2023-11-21T06:37:27;29.65;;;11.48;;
10244;SDS011;5167;52.164;10.530;2023-11-21T06:39:54;31.65;;;12.27;;
10244;SDS011;5167;52.164;10.530;2023-11-21T06:42:21;26.55;;;10.75;;
10244;SDS011;5167;52.164;10.530;2023-11-21T06:44:47;24.27;;;10.75;;
10244;SDS011;5167;52.164;10.530;2023-11-21T06:47:13;26.52;;;11.25;;
10244;SDS011;5167;52.164;10.530;2023-11-21T06:49:39;29.17;;;11.00;;
10244;SDS011;5167;52.164;10.530;2023-11-21T06:52:06;24.95;;;10.65;;
10244;SDS011;5167;52.164;10.530;2023-11-21T06:54:31;9.75;;;6.13;;
10244;SDS011;5167;52.164;10.530;2023-11-21T06:56:57;6.47;;;3.93;;
10244;SDS011;5167;52.164;10.530;2023-11-21T06:59:23;6.37;;;3.30;;
10244;SDS011;5167;52.164;10.530;2023-11-21T07:01:49;4.75;;;3.45;;
10244;SDS011;5167;52.164;10.530;2023-11-21T07:04:15;4.70;;;3.47;;
10244;SDS011;5167;52.164;10.530;2023-11-21T07:06:40;5.17;;;3.23;;
10244;SDS011;5167;52.164;10.530;2023-11-21T07:09:06;7.40;;;4.23;;
10244;SDS011;5167;52.164;10.530;2023-11-21T07:11:33;5.90;;;3.93;;
10244;SDS011;5167;52.164;10.530;2023-11-21T07:13:59;7.47;;;4.27;;
10244;SDS011;5167;52.164;10.530;2023-11-21T07:16:27;8.77;;;5.03;;
10244;SDS011;5167;52.164;10.530;2023-11-21T07:18:55;9.43;;;4.80;;
10244;SDS011;5167;52.164;10.530;2023-11-21T07:21:21;8.00;;;4.87;;
10244;SDS011;5167;52.164;10.530;2023-11-21T07:23:46;6.63;;;4.37;;
10244;SDS011;5167;52.164;10.530;2023-11-21T07:26:12;7.50;;;4.77;;
10244;SDS011;5167;52.164;10.530;2023-11-21T07:28:37;6.47;;;4.40;;
10244;SDS011;5167;52.164;10.530;2023-11-21T07:31:03;7.37;;;4.93;;
10244;SDS011;5167;52.164;10.530;2023-11-21T07:33:28;8.07;;;5.17;;
10244;SDS011;5167;52.164;10.530;2023-11-21T07:35:54;8.77;;;5.53;;
10244;SDS011;5167;52.164;10.530;2023-11-21T07:38:19;7.93;;;4.47;;
10244;SDS011;5167;52.164;10.530;2023-11-21T07:40:45;13.83;;;6.20;;
10244;SDS011;5167;52.164;10.530;2023-11-21T07:43:11;10.80;;;5.90;;
10244;SDS011;5167;52.164;10.530;2023-11-21T07:45:36;11.73;;;6.70;;
10244;SDS011;5167;52.164;10.530;2023-11-21T07:48:02;11.63;;;6.27;;
10244;SDS011;5167;52.164;10.530;2023-11-21T07:50:30;12.13;;;6.37;;
10244;SDS011;5167;52.164;10.530;2023-11-21T07:52:55;13.90;;;7.10;;
10244;SDS011;5167;52.164;10.530;2023-11-21T07:55:22;15.80;;;7.53;;
10244;SDS011;5167;52.164;10.530;2023-11-21T07:57:49;15.47;;;7.73;;
10244;SDS011;5167;52.164;10.530;2023-11-21T08:00:15;14.10;;;7.70;;
10244;SDS011;5167;52.164;10.530;2023-11-21T08:02:41;14.80;;;7.07;;
10244;SDS011;5167;52.164;10.530;2023-11-21T08:05:11;10.43;;;6.40;;
10244;SDS011;5167;52.164;10.530;2023-11-21T08:07:37;12.77;;;6.43;;
10244;SDS011;5167;52.164;10.530;2023-11-21T08:10:03;14.10;;;6.43;;
10244;SDS011;5167;52.164;10.530;2023-11-21T08:12:30;10.80;;;6.63;;
10244;SDS011;5167;52.164;10.530;2023-11-21T08:14:55;10.03;;;5.70;;
10244;SDS011;5167;52.164;10.530;2023-11-21T08:17:21;9.33;;;5.40;;
10244;SDS011;5167;52.164;10.530;2023-11-21T08:19:47;10.93;;;6.07;;
10244;SDS011;5167;52.164;10.530;2023-11-21T08:22:15;13.53;;;5.70;;
10244;SDS011;5167;52.164;10.530;2023-11-21T08:24:43;10.33;;;5.00;;
10244;SDS011;5167;52.164;10.530;2023-11-21T08:27:09;12.27;;;5.67;;
10244;SDS011;5167;52.164;10.530;2023-11-21T08:29:35;8.70;;;4.80;;
10244;SDS011;5167;52.164;10.530;2023-11-21T08:32:01;8.97;;;5.23;;
10244;SDS011;5167;52.164;10.530;2023-11-21T08:34:27;7.67;;;4.87;;
10244;SDS011;5167;52.164;10.530;2023-11-21T08:36:53;8.70;;;5.53;;
10244;SDS011;5167;52.164;10.530;2023-11-21T08:39:19;7.83;;;5.40;;
10244;SDS011;5167;52.164;10.530;2023-11-21T08:41:44;8.10;;;5.37;;
10244;SDS011;5167;52.164;10.530;2023-11-21T08:44:10;10.43;;;5.70;;
10244;SDS011;5167;52.164;10.530;2023-11-21T08:46:36;9.07;;;5.90;;
10244;SDS011;5167;52.164;10.530;2023-11-21T08:49:04;11.03;;;6.33;;
10244;SDS011;5167;52.164;10.530;2023-11-21T08:51:29;10.77;;;6.23;;
10244;SDS011;5167;52.164;10.530;2023-11-21T08:53:55;11.23;;;6.43;;
10244;SDS011;5167;52.164;10.530;2023-11-21T08:56:24;14.80;;;6.00;;
10244;SDS011;5167;52.164;10.530;2023-11-21T08:58:50;12.17;;;6.87;;
10244;SDS011;5167;52.164;10.530;2023-11-21T09:01:15;11.27;;;6.77;;
10244;SDS011;5167;52.164;10.530;2023-11-21T09:03:42;10.93;;;7.07;;
10244;SDS011;5167;52.164;10.530;2023-11-21T09:06:08;10.83;;;6.40;;
10244;SDS011;5167;52.164;10.530;2023-11-21T09:08:34;11.73;;;6.70;;
10244;SDS011;5167;52.164;10.530;2023-11-21T09:11:00;11.63;;;7.00;;
10244;SDS011;5167;52.164;10.530;2023-11-21T09:13:25;12.63;;;6.47;;
10244;SDS011;5167;52.164;10.530;2023-11-21T09:15:51;10.77;;;6.50;;
10244;SDS011;5167;52.164;10.530;2023-11-21T09:18:17;12.37;;;6.27;;
10244;SDS011;5167;52.164;10.530;2023-11-21T09:20:42;10.40;;;6.20;;
10244;SDS011;5167;52.164;10.530;2023-11-21T09:23:11;10.10;;;6.17;;
10244;SDS011;5167;52.164;10.530;2023-11-21T09:25:37;9.40;;;6.00;;
10244;SDS011;5167;52.164;10.530;2023-11-21T09:28:03;10.70;;;5.60;;
10244;SDS011;5167;52.164;10.530;2023-11-21T09:30:32;8.47;;;5.60;;
10244;SDS011;5167;52.164;10.530;2023-11-21T09:32:59;10.33;;;6.13;;
10244;SDS011;5167;52.164;10.530;2023-11-21T09:35:25;7.67;;;4.83;;
10244;SDS011;5167;52.164;10.530;2023-11-21T09:37:52;8.63;;;4.83;;
10244;SDS011;5167;52.164;10.530;2023-11-21T09:40:18;6.27;;;4.20;;
10244;SDS011;5167;52.164;10.530;2023-11-21T09:42:56;6.23;;;4.57;;
10244;SDS011;5167;52.164;10.530;2023-11-21T09:45:27;7.47;;;4.73;;
10244;SDS011;5167;52.164;10.530;2023-11-21T09:47:54;6.17;;;4.60;;
10244;SDS011;5167;52.164;10.530;2023-11-21T09:50:21;5.83;;;4.30;;
10244;SDS011;5167;52.164;10.530;2023-11-21T09:55:36;6.63;;;4.27;;
10244;SDS011;5167;52.164;10.530;2023-11-21T09:58:03;8.67;;;4.90;;
10244;SDS011;5167;52.164;10.530;2023-11-21T10:00:32;6.37;;;4.27;;
10244;SDS011;5167;52.164;10.530;2023-11-21T10:02:58;8.60;;;4.77;;
10244;SDS011;5167;52.164;10.530;2023-11-21T10:05:24;6.53;;;4.40;;
10244;SDS011;5167;52.164;10.530;2023-11-21T10:07:50;6.57;;;4.27;;
10244;SDS011;5167;52.164;10.530;2023-11-21T10:10:18;5.60;;;4.10;;
10244;SDS011;5167;52.164;10.530;2023-11-21T10:12:47;6.97;;;4.73;;
10244;SDS011;5167;52.164;10.530;2023-11-21T10:15:18;6.23;;;4.67;;
10244;SDS011;5167;52.164;10.530;2023-11-21T10:17:46;5.70;;;3.90;;
10244;SDS011;5167;52.164;10.530;2023-11-21T10:20:14;7.97;;;4.70;;
10244;SDS011;5167;52.164;10.530;2023-11-21T10:22:41;6.50;;;4.57;;
10244;SDS011;5167;52.164;10.530;2023-11-21T10:25:08;5.67;;;4.07;;
10244;SDS011;5167;52.164;10.530;2023-11-21T10:27:34;5.20;;;4.13;;
10244;SDS011;5167;52.164;10.530;2023-11-21T10:30:04;6.80;;;4.70;;
10244;SDS011;5167;52.164;10.530;2023-11-21T10:32:30;8.07;;;4.63;;
10244;SDS011;5167;52.164;10.530;2023-11-21T10:34:59;7.43;;;4.70;;
10244;SDS011;5167;52.164;10.530;2023-11-21T10:37:25;9.73;;;5.27;;
10244;SDS011;5167;52.164;10.530;2023-11-21T10:39:56;6.43;;;4.57;;
10244;SDS011;5167;52.164;10.530;2023-11-21T10:42:23;6.07;;;4.20;;
10244;SDS011;5167;52.164;10.530;2023-11-21T10:44:49;7.10;;;4.53;;
10244;SDS011;5167;52.164;10.530;2023-11-21T10:47:15;8.73;;;4.90;;
10244;SDS011;5167;52.164;10.530;2023-11-21T10:49:44;6.80;;;4.77;;
10244;SDS011;5167;52.164;10.530;2023-11-21T10:52:12;10.00;;;5.77;;
10244;SDS011;5167;52.164;10.530;2023-11-21T10:54:42;8.23;;;5.13;;
10244;SDS011;5167;52.164;10.530;2023-11-21T10:57:08;7.40;;;4.73;;
10244;SDS011;5167;52.164;10.530;2023-11-21T10:59:35;8.40;;;5.23;;
10244;SDS011;5167;52.164;10.530;2023-11-21T11:02:01;8.60;;;4.73;;
10244;SDS011;5167;52.164;10.530;2023-11-21T11:04:45;7.40;;;4.73;;
10244;SDS011;5167;52.164;10.530;2023-11-21T11:07:13;6.65;;;4.82;;
10244;SDS011;5167;52.164;10.530;2023-11-21T11:09:41;6.20;;;4.53;;
10244;SDS011;5167;52.164;10.530;2023-11-21T11:12:06;7.43;;;5.03;;
10244;SDS011;5167;52.164;10.530;2023-11-21T11:14:34;7.90;;;5.20;;
10244;SDS011;5167;52.164;10.530;2023-11-21T11:17:01;7.43;;;4.90;;
10244;SDS011;5167;52.164;10.530;2023-11-21T11:19:29;6.33;;;4.60;;
10244;SDS011;5167;52.164;10.530;2023-11-21T11:27:37;8.97;;;4.60;;
10244;SDS011;5167;52.164;10.530;2023-11-21T11:30:32;6.37;;;5.00;;
10244;SDS011;5167;52.164;10.530;2023-11-21T11:33:08;8.57;;;5.13;;
10244;SDS011;5167;52.164;10.530;2023-11-21T11:35:58;6.97;;;4.67;;
10244;SDS011;5167;52.164;10.530;2023-11-21T11:38:31;8.67;;;5.03;;
10244;SDS011;5167;52.164;10.530;2023-11-21T11:41:00;8.80;;;4.90;;
10244;SDS011;5167;52.164;10.530;2023-11-21T11:43:29;5.60;;;4.50;;
10244;SDS011;5167;52.164;10.530;2023-11-21T11:45:56;7.33;;;4.87;;
10244;SDS011;5167;52.164;10.530;2023-11-21T11:48:23;6.90;;;5.00;;
10244;SDS011;5167;52.164;10.530;2023-11-21T11:51:02;6.30;;;4.50;;
10244;SDS011;5167;52.164;10.530;2023-11-21T11:53:33;7.77;;;4.67;;
10244;SDS011;5167;52.164;10.530;2023-11-21T11:56:23;8.30;;;4.77;;
10244;SDS011;5167;52.164;10.530;2023-11-21T11:58:51;7.43;;;4.47;;
10244;SDS011;5167;52.164;10.530;2023-11-21T12:01:22;7.97;;;4.70;;
10244;SDS011;5167;52.164;10.530;2023-11-21T12:06:41;5.90;;;4.60;;
10244;SDS011;5167;52.164;10.530;2023-11-21T12:09:12;6.37;;;4.23;;
10244;SDS011;5167;52.164;10.530;2023-11-21T12:11:46;8.03;;;4.13;;
10244;SDS011;5167;52.164;10.530;2023-11-21T12:14:13;5.80;;;4.17;;
10244;SDS011;5167;52.164;10.530;2023-11-21T12:16:39;7.33;;;4.17;;
10244;SDS011;5167;52.164;10.530;2023-11-21T12:19:07;8.77;;;4.70;;
10244;SDS011;5167;52.164;10.530;2023-11-21T12:21:33;5.43;;;4.43;;
10244;SDS011;5167;52.164;10.530;2023-11-21T12:23:59;7.90;;;4.57;;
10244;SDS011;5167;52.164;10.530;2023-11-21T12:26:25;6.60;;;5.07;;
10244;SDS011;5167;52.164;10.530;2023-11-21T12:28:53;6.50;;;4.57;;
10244;SDS011;5167;52.164;10.530;2023-11-21T12:31:22;7.40;;;4.60;;
10244;SDS011;5167;52.164;10.530;2023-11-21T12:33:48;5.63;;;4.33;;
10244;SDS011;5167;52.164;10.530;2023-11-21T12:36:14;5.77;;;4.20;;
10244;SDS011;5167;52.164;10.530;2023-11-21T12:38:41;6.30;;;3.97;;
10244;SDS011;5167;52.164;10.530;2023-11-21T12:41:07;8.30;;;4.10;;
10244;SDS011;5167;52.164;10.530;2023-11-21T12:43:32;5.80;;;3.93;;
10244;SDS011;5167;52.164;10.530;2023-11-21T12:46:12;6.50;;;3.90;;
10244;SDS011;5167;52.164;10.530;2023-11-21T12:48:39;6.97;;;4.40;;
10244;SDS011;5167;52.164;10.530;2023-11-21T12:51:07;8.93;;;5.47;;
10244;SDS011;5167;52.164;10.530;2023-11-21T12:53:34;9.53;;;4.97;;
10244;SDS011;5167;52.164;10.530;2023-11-21T12:56:06;6.50;;;4.27;;
10244;SDS011;5167;52.164;10.530;2023-11-21T12:58:34;12.60;;;8.23;;
10244;SDS011;5167;52.164;10.530;2023-11-21T13:01:01;8.50;;;4.90;;
10244;SDS011;5167;52.164;10.530;2023-11-21T13:03:29;5.73;;;4.13;;
10244;SDS011;5167;52.164;10.530;2023-11-21T13:05:55;6.60;;;3.90;;
10244;SDS011;5167;52.164;10.530;2023-11-21T13:08:22;4.30;;;3.60;;
10244;SDS011;5167;52.164;10.530;2023-11-21T13:10:50;6.97;;;3.77;;
10244;SDS011;5167;52.164;10.530;2023-11-21T13:13:21;5.93;;;4.00;;
10244;SDS011;5167;52.164;10.530;2023-11-21T13:15:50;5.03;;;3.20;;
10244;SDS011;5167;52.164;10.530;2023-11-21T13:18:25;5.50;;;3.23;;
10244;SDS011;5167;52.164;10.530;2023-11-21T13:20:53;3.70;;;3.30;;
10244;SDS011;5167;52.164;10.530;2023-11-21T13:23:20;3.43;;;2.90;;
10244;SDS011;5167;52.164;10.530;2023-11-21T13:25:48;5.00;;;3.20;;
10244;SDS011;5167;52.164;10.530;2023-11-21T13:28:14;3.83;;;3.37;;
10244;SDS011;5167;52.164;10.530;2023-11-21T13:30:45;11.07;;;3.47;;
10244;SDS011;5167;52.164;10.530;2023-11-21T13:33:13;4.60;;;4.07;;
10244;SDS011;5167;52.164;10.530;2023-11-21T13:35:43;5.70;;;3.27;;
10244;SDS011;5167;52.164;10.530;2023-11-21T13:38:14;4.73;;;3.10;;
10244;SDS011;5167;52.164;10.530;2023-11-21T13:40:42;4.90;;;2.80;;
10244;SDS011;5167;52.164;10.530;2023-11-21T13:43:18;3.83;;;2.60;;
10244;SDS011;5167;52.164;10.530;2023-11-21T13:45:47;7.90;;;3.90;;
10244;SDS011;5167;52.164;10.530;2023-11-21T13:48:16;5.10;;;3.30;;
10244;SDS011;5167;52.164;10.530;2023-11-21T13:50:50;3.40;;;2.73;;
10244;SDS011;5167;52.164;10.530;2023-11-21T13:53:26;3.30;;;3.00;;
10244;SDS011;5167;52.164;10.530;2023-11-21T13:55:53;4.17;;;3.10;;
10244;SDS011;5167;52.164;10.530;2023-11-21T13:58:22;4.60;;;3.23;;
10244;SDS011;5167;52.164;10.530;2023-11-21T14:00:53;5.13;;;3.00;;
10244;SDS011;5167;52.164;10.530;2023-11-21T14:03:22;4.07;;;2.93;;
10244;SDS011;5167;52.164;10.530;2023-11-21T14:05:50;3.60;;;2.97;;
10244;SDS011;5167;52.164;10.530;2023-11-21T14:08:22;4.27;;;3.00;;
10244;SDS011;5167;52.164;10.530;2023-11-21T14:10:53;3.13;;;2.70;;
10244;SDS011;5167;52.164;10.530;2023-11-21T14:13:24;4.73;;;2.87;;
10244;SDS011;5167;52.164;10.530;2023-11-21T14:15:50;4.20;;;2.90;;
10244;SDS011;5167;52.164;10.530;2023-11-21T14:18:22;7.80;;;4.37;;
10244;SDS011;5167;52.164;10.530;2023-11-21T14:21:03;7.70;;;3.90;;
10244;SDS011;5167;52.164;10.530;2023-11-21T14:23:30;3.23;;;2.87;;
10244;SDS011;5167;52.164;10.530;2023-11-21T14:25:56;3.77;;;2.80;;
10244;SDS011;5167;52.164;10.530;2023-11-21T14:28:23;6.33;;;2.90;;
10244;SDS011;5167;52.164;10.530;2023-11-21T14:30:48;4.90;;;3.33;;
10244;SDS011;5167;52.164;10.530;2023-11-21T14:33:14;4.33;;;3.40;;
10244;SDS011;5167;52.164;10.530;2023-11-21T14:35:41;5.97;;;3.00;;
10244;SDS011;5167;52.164;10.530;2023-11-21T14:38:07;5.20;;;3.83;;
10244;SDS011;5167;52.164;10.530;2023-11-21T14:40:34;4.27;;;3.10;;
10244;SDS011;5167;52.164;10.530;2023-11-21T14:43:01;3.33;;;2.43;;
10244;SDS011;5167;52.164;10.530;2023-11-21T14:45:30;3.73;;;3.03;;
10244;SDS011;5167;52.164;10.530;2023-11-21T14:47:55;3.03;;;2.40;;
10244;SDS011;5167;52.164;10.530;2023-11-21T14:50:31;4.83;;;3.50;;